Aérodrome :
LOGIN :

S'inscrire | Disclaimer

   EN    FR    IT 

 










Légende :    VFR   VFR Marginal   IFR   IFR Intensif   IFR Très Intensif
Visi : 
Plafond : 
>= 8 km
>= 3000ft
5 à 8 km
1000 à 3000 ft
1500m à 5 km
500 à 1000 ft
800 à 1500m
200 à 500 ft
< 800m
< 200 ft
Symboles :   Orages  Brouillard  Fortes neiges  Fortes précipitations  Vent > 20 kt
SIGMETs :   Divers  Orages  Givrage  Turbulence  Onde Orograph.  Cendres Volcan.






- Altitude de l'aérodrome : 231 ft
- Code IATA : WTN


EGXW - RAF Waddington

DERNIER METAR :
  • 140750Z AUTO 24016KT 9999 NCD 04/M00 Q0983

METARs EXPIRÉS :
  • 140650Z AUTO 25014G24KT 9999 NCD 04/00 Q0982
  • 140550Z AUTO 25013KT 9999 SCT030/// SCT039/// 04/01 Q0981
  • 140450Z AUTO 24008KT 9999 FEW018/// 04/02 Q0981 RERA

TAF TAF EGXW
Valide du 13 à 15h jusqu'au 14 à 09h UTC


131349Z 1315/1409 25014KT 9999 SCT025
TEMPO 1315/1322 25017G27KT BKN022
PROB30
TEMPO 1316/1320 7000 RA
PROB40
TEMPO 1322/1406 25015G25KT
PROB30
TEMPO 1402/1406 7000 -SHRA BKN018
TEMPO 1406/1409 24018G28KT



MET'MAP, la Météo Aéronautique d'un coup d'oeil ! - Copyright ORBIFLY Décembre 2007 - Disclaimer

ORBIFLY MET'MAP TEAM :

Programmation & Développement : Alexandra Zaïnal
Sur une idée originale de : Baudouin d'Aumeries
Assistance à la programmation : Marc-Olivier Méhu
Soutien technique & logistique : Manuel Goepfert

Contact : metmap@orbifly.com




SOURCES & CREDITS :

   NOAA